createdAt,value
2022-08-12T00:01:12.828Z,1020.61
2022-08-12T00:03:12.849Z,1020.64
2022-08-12T00:05:12.774Z,1020.64
2022-08-12T00:07:12.776Z,1020.61
2022-08-12T00:09:12.794Z,1020.61
2022-08-12T00:11:12.897Z,1020.58
2022-08-12T00:15:12.821Z,1020.60
2022-08-12T00:17:12.823Z,1020.60
2022-08-12T00:21:12.792Z,1020.66
2022-08-12T00:23:12.826Z,1020.66
2022-08-12T00:25:12.822Z,1020.66
2022-08-12T00:27:12.757Z,1020.67
2022-08-12T00:30:55.814Z,1020.66
2022-08-12T00:33:25.818Z,1020.66
2022-08-12T00:35:36.570Z,1020.64
2022-08-12T00:37:25.805Z,1020.62
2022-08-12T00:39:25.821Z,1020.60
2022-08-12T00:41:25.827Z,1020.56
2022-08-12T00:43:25.798Z,1020.56
2022-08-12T00:45:25.798Z,1020.51
2022-08-12T00:47:26.115Z,1020.47
2022-08-12T00:49:25.815Z,1020.48
2022-08-12T00:51:25.793Z,1020.42
2022-08-12T00:53:27.034Z,1020.42
2022-08-12T00:55:25.815Z,1020.40
2022-08-12T00:57:25.828Z,1020.42
2022-08-12T00:59:25.806Z,1020.42
2022-08-12T01:01:25.928Z,1020.42
2022-08-12T01:03:25.830Z,1020.47
2022-08-12T01:05:25.819Z,1020.48
2022-08-12T01:07:25.887Z,1020.54
2022-08-12T01:09:25.818Z,1020.54
2022-08-12T01:11:25.804Z,1020.54
2022-08-12T01:13:25.858Z,1020.53
2022-08-12T01:15:25.849Z,1020.53
2022-08-12T01:17:25.838Z,1020.51
2022-08-12T01:19:25.838Z,1020.52
2022-08-12T01:21:25.894Z,1020.52
2022-08-12T01:23:25.837Z,1020.46
2022-08-12T01:25:25.810Z,1020.42
2022-08-12T01:27:25.931Z,1020.33
2022-08-12T01:29:25.846Z,1020.31
2022-08-12T01:31:25.824Z,1020.31
2022-08-12T01:33:25.888Z,1020.35
2022-08-12T01:35:25.832Z,1020.41
2022-08-12T01:37:25.834Z,1020.41
2022-08-12T01:39:25.868Z,1020.41
2022-08-12T01:41:25.960Z,1020.41
2022-08-12T01:43:25.888Z,1020.36
2022-08-12T01:45:25.833Z,1020.33
2022-08-12T01:47:25.884Z,1020.35
2022-08-12T01:49:25.841Z,1020.35
2022-08-12T01:52:05.264Z,1020.31
2022-08-12T01:53:25.875Z,1020.30
2022-08-12T01:55:25.933Z,1020.29
2022-08-12T01:57:58.463Z,1020.25
2022-08-12T01:59:25.899Z,1020.25
2022-08-12T02:01:25.893Z,1020.20
2022-08-12T02:03:25.849Z,1020.20
2022-08-12T02:05:25.857Z,1020.21
2022-08-12T02:07:25.913Z,1020.21
2022-08-12T02:09:25.863Z,1020.19
2022-08-12T02:11:25.863Z,1020.16
2022-08-12T02:13:42.057Z,1020.15
2022-08-12T02:15:25.865Z,1020.15
2022-08-12T02:17:54.634Z,1020.15
2022-08-12T02:19:25.876Z,1020.13
2022-08-12T02:21:25.879Z,1020.13
2022-08-12T02:23:25.954Z,1020.06
2022-08-12T02:25:25.876Z,1020.07
2022-08-12T02:27:25.874Z,1020.07
2022-08-12T02:29:25.882Z,1020.05
2022-08-12T02:31:25.874Z,1020.03
2022-08-12T02:33:25.918Z,1020.03
2022-08-12T02:35:55.879Z,1020.00
2022-08-12T02:37:55.876Z,1019.99
2022-08-12T02:39:55.928Z,1019.99
2022-08-12T02:41:55.887Z,1019.97
2022-08-12T02:43:55.901Z,1019.96
2022-08-12T02:45:56.010Z,1019.91
2022-08-12T02:48:00.148Z,1019.87
2022-08-12T02:49:55.894Z,1019.87
2022-08-12T02:51:55.896Z,1019.86
2022-08-12T02:54:04.862Z,1019.85
2022-08-12T02:55:55.894Z,1019.83
2022-08-12T02:57:55.886Z,1019.84
2022-08-12T02:59:55.893Z,1019.84
2022-08-12T03:01:55.881Z,1019.84
2022-08-12T03:03:55.906Z,1019.78
2022-08-12T03:05:55.903Z,1019.79
2022-08-12T03:07:59.936Z,1019.79
2022-08-12T03:10:04.249Z,1019.78
2022-08-12T03:11:55.915Z,1019.79
2022-08-12T03:13:55.904Z,1019.78
2022-08-12T03:15:55.903Z,1019.81
2022-08-12T03:18:25.392Z,1019.81
2022-08-12T03:20:09.998Z,1019.81
2022-08-12T03:22:09.352Z,1019.85
2022-08-12T03:23:55.909Z,1019.82
2022-08-12T03:25:55.922Z,1019.80
2022-08-12T03:27:55.958Z,1019.80
2022-08-12T03:29:55.926Z,1019.81
2022-08-12T03:31:55.975Z,1019.79
2022-08-12T03:34:01.314Z,1019.84
2022-08-12T03:35:55.946Z,1019.84
2022-08-12T03:37:55.942Z,1019.85
2022-08-12T03:39:55.962Z,1019.86
2022-08-12T03:41:58.001Z,1019.86
2022-08-12T03:43:56.206Z,1019.88
2022-08-12T03:45:55.929Z,1019.88
2022-08-12T03:47:55.937Z,1019.90
2022-08-12T03:49:55.938Z,1019.91
2022-08-12T03:51:55.929Z,1019.89
2022-08-12T03:53:55.924Z,1019.91
2022-08-12T03:55:55.935Z,1019.91
2022-08-12T03:57:55.944Z,1019.95
2022-08-12T03:59:55.970Z,1019.95
2022-08-12T04:01:56.037Z,1019.97
2022-08-12T04:03:55.944Z,1019.97
2022-08-12T04:05:56.772Z,1019.99
2022-08-12T04:07:58.335Z,1020.02
2022-08-12T04:09:56.039Z,1019.98
2022-08-12T04:11:55.941Z,1019.95
2022-08-12T04:13:55.940Z,1019.95
2022-08-12T04:15:55.973Z,1019.98
2022-08-12T04:18:06.995Z,1019.97
2022-08-12T04:19:55.967Z,1019.94
2022-08-12T04:22:02.429Z,1019.94
2022-08-12T04:23:55.961Z,1019.94
2022-08-12T04:25:56.042Z,1019.97
2022-08-12T04:27:55.936Z,1019.96
2022-08-12T04:30:32.859Z,1019.95
2022-08-12T04:31:55.990Z,1019.92
2022-08-12T04:33:55.990Z,1019.92
2022-08-12T04:37:58.185Z,1019.93
2022-08-12T04:39:56.044Z,1019.95
2022-08-12T04:42:26.057Z,1019.95
2022-08-12T04:44:26.074Z,1019.97
2022-08-12T04:46:30.577Z,1019.94
2022-08-12T04:48:25.969Z,1019.98
2022-08-12T04:50:35.154Z,1020.02
2022-08-12T04:52:25.989Z,1020.02
2022-08-12T04:54:25.984Z,1019.96
2022-08-12T04:56:26.015Z,1019.97
2022-08-12T04:58:29.815Z,1019.96
2022-08-12T05:00:25.990Z,1019.97
2022-08-12T05:02:25.996Z,1019.97
2022-08-12T05:04:25.996Z,1019.97
2022-08-12T05:06:26.817Z,1019.94
2022-08-12T05:08:25.988Z,1020.01
2022-08-12T05:10:33.788Z,1020.01
2022-08-12T05:12:26.002Z,1020.01
2022-08-12T05:14:25.998Z,1020.02
2022-08-12T05:16:30.757Z,1020.01
2022-08-12T05:18:26.006Z,1020.01
2022-08-12T05:20:26.095Z,1020.01
2022-08-12T05:22:26.186Z,1020.06
2022-08-12T05:24:26.032Z,1020.07
2022-08-12T05:26:26.007Z,1020.11
2022-08-12T05:28:26.081Z,1020.13
2022-08-12T05:30:26.006Z,1020.13
2022-08-12T05:32:26.016Z,1020.17
2022-08-12T05:34:26.827Z,1020.19
2022-08-12T05:36:26.009Z,1020.19
2022-08-12T05:38:26.024Z,1020.19
2022-08-12T05:40:26.019Z,1020.20
2022-08-12T05:42:31.119Z,1020.20
2022-08-12T05:44:26.124Z,1020.20
2022-08-12T05:46:26.009Z,1020.27
2022-08-12T05:48:26.022Z,1020.27
2022-08-12T05:50:26.142Z,1020.28
2022-08-12T05:52:26.009Z,1020.29
2022-08-12T05:54:41.098Z,1020.27
2022-08-12T05:56:26.009Z,1020.30
2022-08-12T05:58:26.107Z,1020.30
2022-08-12T06:00:26.060Z,1020.27
2022-08-12T06:02:26.034Z,1020.23
2022-08-12T06:04:26.043Z,1020.23
2022-08-12T06:06:27.739Z,1020.23
2022-08-12T06:08:26.028Z,1020.25
2022-08-12T06:10:31.715Z,1020.26
2022-08-12T06:12:26.053Z,1020.20
2022-08-12T06:14:26.083Z,1020.23
2022-08-12T06:16:26.042Z,1020.23
2022-08-12T06:18:29.716Z,1020.20
2022-08-12T06:20:29.890Z,1020.21
2022-08-12T06:22:26.038Z,1020.17
2022-08-12T06:24:26.040Z,1020.17
2022-08-12T06:26:26.057Z,1020.17
2022-08-12T06:28:26.049Z,1020.23
2022-08-12T06:30:36.814Z,1020.25
2022-08-12T06:32:27.529Z,1020.26
2022-08-12T06:35:23.889Z,1020.28
2022-08-12T06:36:29.993Z,1020.28
2022-08-12T06:38:26.072Z,1020.24
2022-08-12T06:40:26.101Z,1020.22
2022-08-12T06:42:32.484Z,1020.26
2022-08-12T06:44:26.171Z,1020.26
2022-08-12T06:46:26.058Z,1020.25
2022-08-12T06:48:56.067Z,1020.27
2022-08-12T06:50:56.154Z,1020.31
2022-08-12T06:52:56.103Z,1020.31
2022-08-12T06:54:56.084Z,1020.33
2022-08-12T06:58:05.418Z,1020.31
2022-08-12T06:58:56.195Z,1020.31
2022-08-12T07:00:56.130Z,1020.31
2022-08-12T07:02:56.157Z,1020.34
2022-08-12T07:04:56.100Z,1020.34
2022-08-12T07:06:56.094Z,1020.34
2022-08-12T07:08:56.167Z,1020.27
2022-08-12T07:10:56.160Z,1020.29
2022-08-12T07:12:56.145Z,1020.29
2022-08-12T07:14:56.157Z,1020.24
2022-08-12T07:16:56.145Z,1020.24
2022-08-12T07:18:56.099Z,1020.26
2022-08-12T07:20:56.166Z,1020.26
2022-08-12T07:22:56.086Z,1020.20
2022-08-12T07:24:56.162Z,1020.22
2022-08-12T07:26:56.123Z,1020.22
2022-08-12T07:28:56.185Z,1020.19
2022-08-12T07:30:56.177Z,1020.17
2022-08-12T07:32:59.923Z,1020.10
2022-08-12T07:34:56.170Z,1020.15
2022-08-12T07:36:56.154Z,1020.15
2022-08-12T07:38:56.254Z,1020.09
2022-08-12T07:40:56.251Z,1020.06
2022-08-12T07:42:56.177Z,1020.06
2022-08-12T07:46:56.235Z,1020.06
2022-08-12T07:50:56.346Z,1020.09
2022-08-12T07:55:04.420Z,1020.07
2022-08-12T07:57:04.408Z,1020.14
2022-08-12T07:59:04.413Z,1020.13
2022-08-12T08:01:04.428Z,1020.15
2022-08-12T08:03:04.409Z,1020.09
2022-08-12T08:05:04.418Z,1020.09
2022-08-12T08:07:04.509Z,1020.10
2022-08-12T08:09:04.409Z,1020.10
2022-08-12T08:11:04.510Z,1020.11
2022-08-12T08:13:04.434Z,1020.11
2022-08-12T08:15:04.425Z,1020.04
2022-08-12T08:17:04.419Z,1020.10
2022-08-12T08:19:04.433Z,1020.07
2022-08-12T08:21:04.466Z,1020.04
2022-08-12T08:23:04.442Z,1020.04
2022-08-12T08:25:04.463Z,1020.10
2022-08-12T08:27:04.444Z,1020.10
2022-08-12T08:29:04.485Z,1020.09
2022-08-12T08:31:04.463Z,1020.07
2022-08-12T08:33:17.293Z,1020.07
2022-08-12T08:35:04.457Z,1020.10
2022-08-12T08:37:07.853Z,1020.10
2022-08-12T08:39:04.461Z,1020.10
2022-08-12T08:41:04.454Z,1020.10
2022-08-12T08:43:04.476Z,1020.10
2022-08-12T08:45:04.487Z,1020.12
2022-08-12T08:47:04.479Z,1020.11
2022-08-12T08:49:04.475Z,1020.11
2022-08-12T08:51:05.121Z,1020.11
2022-08-12T08:53:04.466Z,1020.13
2022-08-12T08:55:04.461Z,1020.15
2022-08-12T08:57:13.252Z,1020.11
2022-08-12T08:59:04.639Z,1020.05
2022-08-12T09:01:04.491Z,1020.05
2022-08-12T09:03:04.510Z,1020.11
2022-08-12T09:05:12.475Z,1020.09
2022-08-12T09:07:16.774Z,1020.09
2022-08-12T09:09:12.813Z,1020.09
2022-08-12T09:11:04.481Z,1020.01
2022-08-12T09:13:06.368Z,1020.06
2022-08-12T09:15:16.571Z,1020.00
2022-08-12T09:17:04.566Z,1020.06
2022-08-12T09:19:04.489Z,1020.06
2022-08-12T09:21:06.723Z,1020.06
2022-08-12T09:23:07.744Z,1019.98
2022-08-12T09:25:06.024Z,1020.08
2022-08-12T09:27:04.483Z,1020.08
2022-08-12T09:29:12.340Z,1020.08
2022-08-12T09:31:04.524Z,1020.13
2022-08-12T09:33:19.052Z,1020.16
2022-08-12T09:35:04.519Z,1020.08
2022-08-12T09:37:58.401Z,1020.11
2022-08-12T09:39:57.898Z,1020.11
2022-08-12T09:42:08.518Z,1020.11
2022-08-12T09:43:34.564Z,1020.09
2022-08-12T09:46:12.138Z,1020.09
2022-08-12T09:47:34.526Z,1020.09
2022-08-12T09:49:39.929Z,1019.97
2022-08-12T09:51:37.298Z,1019.97
2022-08-12T09:53:38.444Z,1020.04
2022-08-12T09:56:05.483Z,1019.97
2022-08-12T09:58:07.298Z,1019.98
2022-08-12T10:00:16.740Z,1019.88
2022-08-12T10:02:44.430Z,1019.88
2022-08-12T10:03:34.591Z,1019.91
2022-08-12T10:06:27.036Z,1019.79
2022-08-12T10:07:40.254Z,1019.81
2022-08-12T10:09:58.286Z,1019.81
2022-08-12T10:11:41.362Z,1019.76
2022-08-12T10:13:37.082Z,1019.72
2022-08-12T10:16:02.973Z,1019.71
2022-08-12T10:17:34.552Z,1019.72
2022-08-12T10:19:36.464Z,1019.72
2022-08-12T10:21:36.210Z,1019.72
2022-08-12T10:23:40.247Z,1019.73
2022-08-12T10:26:34.759Z,1019.68
2022-08-12T10:28:03.951Z,1019.68
2022-08-12T10:30:39.353Z,1019.68
2022-08-12T10:32:19.641Z,1019.55
2022-08-12T10:33:54.089Z,1019.59
2022-08-12T10:35:38.268Z,1019.51
2022-08-12T10:38:35.714Z,1019.51
2022-08-12T10:40:06.192Z,1019.48
2022-08-12T10:41:57.717Z,1019.48
2022-08-12T10:43:55.055Z,1019.31
2022-08-12T10:45:38.050Z,1019.43
2022-08-12T10:48:07.324Z,1019.43
2022-08-12T10:50:04.870Z,1019.42
2022-08-12T10:52:02.609Z,1019.44
2022-08-12T10:53:44.886Z,1019.42
2022-08-12T10:55:35.597Z,1019.35
2022-08-12T10:58:15.795Z,1019.35
2022-08-12T11:00:29.233Z,1019.41
2022-08-12T11:04:16.723Z,1019.34
2022-08-12T11:04:23.174Z,1019.34
2022-08-12T11:07:03.422Z,1019.32
2022-08-12T11:08:38.753Z,1019.32
2022-08-12T11:09:55.708Z,1019.32
2022-08-12T11:12:35.639Z,1019.17
2022-08-12T11:13:46.890Z,1019.11
2022-08-12T11:16:19.509Z,1019.11
2022-08-12T11:17:52.402Z,1019.11
2022-08-12T11:19:34.595Z,1019.18
2022-08-12T11:21:56.378Z,1019.10
2022-08-12T11:23:37.023Z,1019.05
2022-08-12T11:25:56.413Z,1019.05
2022-08-12T11:27:34.708Z,1019.04
2022-08-12T11:30:06.208Z,1019.04
2022-08-12T11:31:40.966Z,1019.11
2022-08-12T11:34:04.971Z,1019.12
2022-08-12T11:35:34.627Z,1019.12
2022-08-12T11:37:58.302Z,1019.03
2022-08-12T11:41:34.701Z,1019.03
2022-08-12T11:43:50.183Z,1019.03
2022-08-12T11:46:04.633Z,1019.02
2022-08-12T11:48:04.716Z,1018.97
2022-08-12T11:50:04.601Z,1018.97
2022-08-12T11:52:17.550Z,1018.94
2022-08-12T11:54:04.618Z,1018.94
2022-08-12T11:56:04.618Z,1018.96
2022-08-12T11:58:51.147Z,1018.92
2022-08-12T12:02:05.362Z,1018.85
2022-08-12T12:04:04.626Z,1018.85
2022-08-12T12:06:04.638Z,1018.83
2022-08-12T12:08:37.499Z,1018.83
2022-08-12T12:10:04.634Z,1018.81
2022-08-12T12:12:04.649Z,1018.81
2022-08-12T12:14:07.758Z,1018.77
2022-08-12T12:16:05.973Z,1018.77
2022-08-12T12:18:04.650Z,1018.84
2022-08-12T12:20:04.650Z,1018.82
2022-08-12T12:22:04.722Z,1018.82
2022-08-12T12:24:04.665Z,1018.81
2022-08-12T12:26:07.871Z,1018.79
2022-08-12T12:28:06.224Z,1018.80
2022-08-12T12:30:19.161Z,1018.80
2022-08-12T12:32:11.360Z,1018.80
2022-08-12T12:34:04.652Z,1018.72
2022-08-12T12:36:16.695Z,1018.73
2022-08-12T12:38:11.992Z,1018.67
2022-08-12T12:40:06.016Z,1018.67
2022-08-12T12:42:45.248Z,1018.62
2022-08-12T12:44:04.785Z,1018.67
2022-08-12T12:46:04.669Z,1018.65
2022-08-12T12:48:05.750Z,1018.61
2022-08-12T12:50:06.154Z,1018.61
2022-08-12T12:52:18.519Z,1018.58
2022-08-12T12:54:06.564Z,1018.55
2022-08-12T12:56:04.692Z,1018.51
2022-08-12T12:58:04.827Z,1018.48
2022-08-12T13:00:04.690Z,1018.48
2022-08-12T13:02:07.759Z,1018.49
2022-08-12T13:04:04.707Z,1018.54
2022-08-12T13:06:04.685Z,1018.50
2022-08-12T13:08:04.714Z,1018.52
2022-08-12T13:10:04.705Z,1018.52
2022-08-12T13:12:08.026Z,1018.52
2022-08-12T13:14:07.031Z,1018.55
2022-08-12T13:16:04.727Z,1018.55
2022-08-12T13:18:05.025Z,1018.55
2022-08-12T13:20:04.799Z,1018.49
2022-08-12T13:22:04.719Z,1018.41
2022-08-12T13:24:10.264Z,1018.50
2022-08-12T13:26:04.731Z,1018.50
2022-08-12T13:28:04.737Z,1018.50
2022-08-12T13:30:06.997Z,1018.40
2022-08-12T13:32:18.792Z,1018.42
2022-08-12T13:34:32.131Z,1018.45
2022-08-12T13:36:10.150Z,1018.46
2022-08-12T13:38:04.746Z,1018.46
2022-08-12T13:40:04.753Z,1018.42
2022-08-12T13:42:04.803Z,1018.34
2022-08-12T13:44:04.810Z,1018.31
2022-08-12T13:46:04.749Z,1018.31
2022-08-12T13:48:04.758Z,1018.32
2022-08-12T13:50:05.762Z,1018.28
2022-08-12T13:52:04.811Z,1018.28
2022-08-12T13:54:34.773Z,1018.38
2022-08-12T13:56:35.476Z,1018.33
2022-08-12T13:58:34.997Z,1018.38
2022-08-12T14:00:38.987Z,1018.38
2022-08-12T14:02:34.758Z,1018.27
2022-08-12T14:04:34.747Z,1018.37
2022-08-12T14:06:34.788Z,1018.41
2022-08-12T14:08:34.856Z,1018.42
2022-08-12T14:10:34.779Z,1018.42
2022-08-12T14:12:34.850Z,1018.36
2022-08-12T14:14:35.835Z,1018.34
2022-08-12T14:16:48.494Z,1018.33
2022-08-12T14:18:34.786Z,1018.33
2022-08-12T14:20:34.846Z,1018.33
2022-08-12T14:22:34.909Z,1018.40
2022-08-12T14:24:35.065Z,1018.37
2022-08-12T14:26:34.774Z,1018.34
2022-08-12T14:28:34.916Z,1018.34
2022-08-12T14:30:34.855Z,1018.31
2022-08-12T14:32:35.827Z,1018.31
2022-08-12T14:34:34.907Z,1018.23
2022-08-12T14:36:34.857Z,1018.26
2022-08-12T14:42:43.278Z,1018.28
2022-08-12T14:44:57.732Z,1018.28
2022-08-12T14:46:43.290Z,1018.28
2022-08-12T14:48:43.286Z,1018.34
2022-08-12T14:51:02.563Z,1018.34
2022-08-12T14:54:23.891Z,1018.32
2022-08-12T14:57:19.181Z,1018.25
2022-08-12T14:58:52.089Z,1018.17
2022-08-12T15:00:50.682Z,1018.17
2022-08-12T15:02:43.302Z,1018.21
2022-08-12T15:04:43.301Z,1018.29
2022-08-12T15:06:52.639Z,1018.29
2022-08-12T15:08:43.305Z,1018.26
2022-08-12T15:10:49.904Z,1018.25
2022-08-12T15:12:43.293Z,1018.25
2022-08-12T15:14:45.807Z,1018.25
2022-08-12T15:16:43.306Z,1018.20
2022-08-12T15:18:55.086Z,1018.18
2022-08-12T15:20:43.301Z,1018.28
2022-08-12T15:22:53.720Z,1018.30
2022-08-12T15:24:43.302Z,1018.30
2022-08-12T15:26:43.296Z,1018.30
2022-08-12T15:28:43.300Z,1018.27
2022-08-12T15:30:43.318Z,1018.26
2022-08-12T15:32:43.313Z,1018.24
2022-08-12T15:34:43.318Z,1018.24
2022-08-12T15:36:54.950Z,1018.20
2022-08-12T15:38:43.318Z,1018.21
2022-08-12T15:40:48.454Z,1018.29
2022-08-12T15:42:50.698Z,1018.29
2022-08-12T15:44:43.324Z,1018.23
2022-08-12T15:46:43.320Z,1018.15
2022-08-12T15:48:43.332Z,1018.14
2022-08-12T15:50:45.481Z,1018.09
2022-08-12T15:52:43.309Z,1018.09
2022-08-12T15:54:44.897Z,1018.09
2022-08-12T15:56:43.315Z,1018.08
2022-08-12T15:58:43.312Z,1018.10
2022-08-12T16:00:43.332Z,1018.09
2022-08-12T16:02:50.165Z,1018.09
2022-08-12T16:04:43.328Z,1018.09
2022-08-12T16:07:04.274Z,1018.07
2022-08-12T16:08:43.349Z,1018.11
2022-08-12T16:10:43.358Z,1018.10
2022-08-12T16:12:54.403Z,1018.10
2022-08-12T16:14:43.421Z,1018.08
2022-08-12T16:16:43.365Z,1018.09
2022-08-12T16:18:44.817Z,1018.10
2022-08-12T16:20:46.533Z,1018.10
2022-08-12T16:22:43.339Z,1018.06
2022-08-12T16:24:43.375Z,1018.02
2022-08-12T16:26:45.035Z,1017.99
2022-08-12T16:28:43.367Z,1017.98
2022-08-12T16:30:43.410Z,1017.98
2022-08-12T16:32:46.469Z,1017.97
2022-08-12T16:34:55.571Z,1017.97
2022-08-12T16:37:13.376Z,1017.96
2022-08-12T16:39:13.463Z,1017.93
2022-08-12T16:41:13.368Z,1017.93
2022-08-12T16:43:13.419Z,1017.83
2022-08-12T16:45:13.695Z,1017.82
2022-08-12T16:47:13.433Z,1017.76
2022-08-12T16:49:15.167Z,1017.76
2022-08-12T16:51:13.519Z,1017.76
2022-08-12T16:53:13.398Z,1017.88
2022-08-12T16:55:13.397Z,1017.85
2022-08-12T16:57:13.389Z,1017.84
2022-08-12T16:59:16.118Z,1017.84
2022-08-12T17:01:14.017Z,1017.86
2022-08-12T17:03:13.454Z,1017.82
2022-08-12T17:05:13.377Z,1017.77
2022-08-12T17:07:13.375Z,1017.76
2022-08-12T17:09:17.844Z,1017.76
2022-08-12T17:11:18.118Z,1017.75
2022-08-12T17:13:13.844Z,1017.80
2022-08-12T17:15:51.320Z,1017.80
2022-08-12T17:17:26.077Z,1017.80
2022-08-12T17:19:13.409Z,1017.77
2022-08-12T17:21:13.479Z,1017.79
2022-08-12T17:23:13.824Z,1017.77
2022-08-12T17:25:14.594Z,1017.87
2022-08-12T17:27:16.236Z,1017.87
2022-08-12T17:29:13.407Z,1017.91
2022-08-12T17:31:13.462Z,1017.93
2022-08-12T17:33:13.404Z,1017.97
2022-08-12T17:35:13.422Z,1017.95
2022-08-12T17:37:14.269Z,1017.95
2022-08-12T17:39:13.457Z,1017.97
2022-08-12T17:41:23.059Z,1017.99
2022-08-12T17:43:54.967Z,1018.02
2022-08-12T17:45:17.350Z,1018.02
2022-08-12T17:47:13.418Z,1018.10
2022-08-12T17:49:19.428Z,1018.12
2022-08-12T17:51:15.728Z,1018.10
2022-08-12T17:53:13.516Z,1018.11
2022-08-12T17:55:40.919Z,1018.11
2022-08-12T17:57:16.327Z,1018.11
2022-08-12T17:59:13.440Z,1018.18
2022-08-12T18:01:13.514Z,1018.19
2022-08-12T18:03:13.485Z,1018.19
2022-08-12T18:05:13.526Z,1018.19
2022-08-12T18:07:13.582Z,1018.20
2022-08-12T18:09:13.538Z,1018.22
2022-08-12T18:11:13.477Z,1018.26
2022-08-12T18:13:13.467Z,1018.20
2022-08-12T18:15:26.157Z,1018.20
2022-08-12T18:17:13.544Z,1018.20
2022-08-12T18:19:13.502Z,1018.22
2022-08-12T18:21:13.550Z,1018.26
2022-08-12T18:23:13.458Z,1018.26
2022-08-12T18:26:13.062Z,1018.33
2022-08-12T18:27:29.903Z,1018.32
2022-08-12T18:29:13.489Z,1018.42
2022-08-12T18:31:13.515Z,1018.51
2022-08-12T18:33:13.485Z,1018.51
2022-08-12T18:35:13.507Z,1018.49
2022-08-12T18:37:41.157Z,1018.49
2022-08-12T18:39:16.496Z,1018.53
2022-08-12T18:41:21.078Z,1018.57
2022-08-12T18:43:58.788Z,1018.56
2022-08-12T18:45:47.375Z,1018.56
2022-08-12T18:47:49.906Z,1018.59
2022-08-12T18:49:43.462Z,1018.61
2022-08-12T18:51:49.032Z,1018.65
2022-08-12T18:54:06.368Z,1018.67
2022-08-12T18:55:53.765Z,1018.67
2022-08-12T18:58:05.844Z,1018.67
2022-08-12T19:00:00.971Z,1018.69
2022-08-12T19:02:19.319Z,1018.68
2022-08-12T19:03:43.729Z,1018.72
2022-08-12T19:05:54.567Z,1018.72
2022-08-12T19:07:49.929Z,1018.80
2022-08-12T19:09:58.273Z,1018.78
2022-08-12T19:11:43.975Z,1018.79
2022-08-12T19:13:43.818Z,1018.84
2022-08-12T19:15:43.493Z,1018.84
2022-08-12T19:17:56.885Z,1018.84
2022-08-12T19:19:43.642Z,1018.87
2022-08-12T19:21:43.581Z,1018.90
2022-08-12T19:23:43.587Z,1018.90
2022-08-12T19:26:00.636Z,1018.94
2022-08-12T19:27:50.896Z,1018.93
2022-08-12T19:29:44.172Z,1018.94
2022-08-12T19:31:45.316Z,1018.98
2022-08-12T19:34:06.437Z,1018.98
2022-08-12T19:36:14.602Z,1018.99
2022-08-12T19:38:04.366Z,1018.99
2022-08-12T19:40:10.971Z,1019.03
2022-08-12T19:42:00.584Z,1019.01
2022-08-12T19:44:00.766Z,1019.01
2022-08-12T19:45:48.864Z,1019.06
2022-08-12T19:47:43.597Z,1019.03
2022-08-12T19:49:43.583Z,1019.04
2022-08-12T19:51:43.616Z,1019.04
2022-08-12T19:53:57.403Z,1018.99
2022-08-12T19:55:43.561Z,1018.99
2022-08-12T19:57:43.569Z,1018.99
2022-08-12T20:00:03.657Z,1019.01
2022-08-12T20:02:02.579Z,1019.01
2022-08-12T20:03:43.557Z,1018.99
2022-08-12T20:06:06.139Z,1019.03
2022-08-12T20:07:56.972Z,1019.05
2022-08-12T20:09:43.697Z,1019.05
2022-08-12T20:12:14.442Z,1019.05
2022-08-12T20:13:43.629Z,1019.02
2022-08-12T20:15:44.927Z,1019.01
2022-08-12T20:17:51.032Z,1019.01
2022-08-12T20:20:16.438Z,1019.01
2022-08-12T20:21:43.649Z,1019.06
2022-08-12T20:23:59.643Z,1019.05
2022-08-12T20:25:52.600Z,1019.00
2022-08-12T20:28:04.604Z,1018.99
2022-08-12T20:29:45.404Z,1018.99
2022-08-12T20:31:43.542Z,1019.01
2022-08-12T20:33:50.900Z,1019.02
2022-08-12T20:36:14.432Z,1019.03
2022-08-12T20:38:07.047Z,1019.03
2022-08-12T20:39:57.479Z,1019.03
2022-08-12T20:41:43.613Z,1018.95
2022-08-12T20:43:43.780Z,1018.97
2022-08-12T20:45:51.307Z,1018.97
2022-08-12T20:48:13.976Z,1018.97
2022-08-12T20:50:13.642Z,1018.97
2022-08-12T20:52:15.254Z,1018.97
2022-08-12T20:54:13.805Z,1018.95
2022-08-12T20:56:13.663Z,1018.98
2022-08-12T20:58:13.690Z,1018.98
2022-08-12T21:00:13.760Z,1018.98
2022-08-12T21:02:13.695Z,1018.96
2022-08-12T21:04:13.637Z,1018.92
2022-08-12T21:06:14.134Z,1018.90
2022-08-12T21:08:13.693Z,1018.90
2022-08-12T21:10:13.651Z,1018.91
2022-08-12T21:12:27.548Z,1018.95
2022-08-12T21:14:13.704Z,1018.96
2022-08-12T21:16:13.765Z,1018.97
2022-08-12T21:18:27.181Z,1018.97
2022-08-12T21:20:15.728Z,1018.97
2022-08-12T21:22:24.916Z,1018.95
2022-08-12T21:24:13.745Z,1018.96
2022-08-12T21:26:16.566Z,1018.96
2022-08-12T21:28:13.649Z,1018.98
2022-08-12T21:30:17.249Z,1019.00
2022-08-12T21:32:36.285Z,1019.04
2022-08-12T21:34:13.671Z,1019.03
2022-08-12T21:38:14.552Z,1019.05
2022-08-12T21:40:14.876Z,1019.09
2022-08-12T21:44:32.582Z,1019.13
2022-08-12T21:48:19.809Z,1019.11
2022-08-12T21:50:16.631Z,1019.10
2022-08-12T21:54:21.544Z,1019.09
2022-08-12T21:56:34.835Z,1019.10
2022-08-12T21:58:30.256Z,1019.10
2022-08-12T22:00:32.252Z,1019.10
2022-08-12T22:02:31.140Z,1019.08
2022-08-12T22:04:30.029Z,1019.08
2022-08-12T22:06:42.687Z,1019.07
2022-08-12T22:08:30.007Z,1019.10
2022-08-12T22:10:30.050Z,1019.13
2022-08-12T22:12:33.505Z,1019.13
2022-08-12T22:14:30.013Z,1019.13
2022-08-12T22:16:30.840Z,1019.07
2022-08-12T22:18:30.018Z,1019.08
2022-08-12T22:20:30.077Z,1019.03
2022-08-12T22:22:34.104Z,1019.03
2022-08-12T22:24:30.832Z,1019.07
2022-08-12T22:26:37.894Z,1019.06
2022-08-12T22:28:30.073Z,1019.08
2022-08-12T22:30:33.524Z,1019.03
2022-08-12T22:32:30.247Z,1019.03
2022-08-12T22:34:30.007Z,1019.04
2022-08-12T22:36:29.990Z,1019.09
2022-08-12T22:38:30.065Z,1019.08
2022-08-12T22:40:30.001Z,1019.08
2022-08-12T22:42:30.748Z,1019.08
2022-08-12T22:44:30.095Z,1019.02
2022-08-12T22:46:30.478Z,1019.03
2022-08-12T22:48:32.595Z,1019.04
2022-08-12T22:50:30.022Z,1019.04
2022-08-12T22:52:33.509Z,1019.01
2022-08-12T22:54:37.062Z,1018.99
2022-08-12T22:56:30.891Z,1018.99
2022-08-12T22:58:31.700Z,1019.01
2022-08-12T23:00:30.067Z,1019.01
2022-08-12T23:02:30.048Z,1018.99
2022-08-12T23:04:29.999Z,1018.93
2022-08-12T23:06:30.003Z,1018.89
2022-08-12T23:08:31.635Z,1018.82
2022-08-12T23:10:30.018Z,1018.82
2022-08-12T23:12:29.999Z,1018.81
2022-08-12T23:14:30.098Z,1018.82
2022-08-12T23:16:31.193Z,1018.83
2022-08-12T23:18:30.029Z,1018.84
2022-08-12T23:20:30.046Z,1018.84
2022-08-12T23:22:36.045Z,1018.84
2022-08-12T23:24:30.066Z,1018.79
2022-08-12T23:26:30.061Z,1018.78
2022-08-12T23:28:31.159Z,1018.78
2022-08-12T23:30:32.257Z,1018.71
2022-08-12T23:32:35.906Z,1018.73
2022-08-12T23:34:32.006Z,1018.71
2022-08-12T23:36:39.570Z,1018.71
2022-08-12T23:38:30.705Z,1018.71
2022-08-12T23:40:30.049Z,1018.75
2022-08-12T23:42:30.883Z,1018.76
2022-08-12T23:44:31.617Z,1018.77
2022-08-12T23:46:30.017Z,1018.80
2022-08-12T23:48:31.413Z,1018.80
2022-08-12T23:50:33.808Z,1018.78
2022-08-12T23:52:34.372Z,1018.72
2022-08-12T23:55:23.705Z,1018.71
2022-08-12T23:57:00.044Z,1018.70
2022-08-12T23:59:00.391Z,1018.70
